SVA848 OEJN-VTBS
Flight info
| Callsign | SVA848 |
|---|---|
| Flight time | 8h 9m |
| Altitude | 41000 |
| Route | EGREP B417 PATOR T532 KODIS DCT UMRAN DCT DAPOL DCT TULBU DCT MIGMO DCT TELEM DCT AAE W40 BODAR G472 NNP L524 IBETO DCT WILLA WILLA1C |
| Aircraft | B789/H-SDE1E2E3FGHIJ2J3J4J5M1RWXY/LB1D1 |
Departure
| Time | 2026-05-04 08:54 |
|---|---|
| Airport | King Abdulaziz International Airport (OEJN) |
Arrival
| Time | 2026-05-04 17:04 |
|---|---|
| Airport | Suvarnabhumi Airport (VTBS) |
| Time | Latitude | Longitude | Altitude | Speed | Heading |
|---|---|---|---|---|---|
| 2026-05-04 08:12 | 21.66981 | 39.16677 | 44 ft | 0 kts | 360° |
| 2026-05-04 08:42 | 21.66967 | 39.16677 | 42 ft | 4 kts | 355° |
| 2026-05-04 08:43 | 21.66941 | 39.16682 | 43 ft | 4 kts | 344° |
| 2026-05-04 08:43 | 21.66916 | 39.16692 | 44 ft | 4 kts | 329° |
| 2026-05-04 08:43 | 21.66895 | 39.16709 | 43 ft | 4 kts | 302° |
| 2026-05-04 08:43 | 21.66889 | 39.16722 | 44 ft | 0 kts | 285° |
| 2026-05-04 08:47 | 21.66892 | 39.16710 | 44 ft | 3 kts | 283° |
| 2026-05-04 08:47 | 21.66896 | 39.16685 | 44 ft | 3 kts | 277° |
| 2026-05-04 08:47 | 21.66897 | 39.16655 | 43 ft | 5 kts | 272° |
| 2026-05-04 08:48 | 21.66899 | 39.16612 | 43 ft | 6 kts | 271° |
| 2026-05-04 08:48 | 21.66892 | 39.16560 | 42 ft | 8 kts | 259° |
| 2026-05-04 08:48 | 21.66877 | 39.16502 | 42 ft | 9 kts | 252° |
| 2026-05-04 08:48 | 21.66854 | 39.16441 | 42 ft | 8 kts | 231° |
| 2026-05-04 08:49 | 21.66809 | 39.16420 | 42 ft | 7 kts | 188° |
| 2026-05-04 08:50 | 21.66481 | 39.16546 | 42 ft | 14 kts | 159° |
| 2026-05-04 08:50 | 21.66380 | 39.16586 | 42 ft | 16 kts | 160° |
| 2026-05-04 08:51 | 21.66271 | 39.16632 | 40 ft | 17 kts | 158° |
| 2026-05-04 08:51 | 21.66189 | 39.16635 | 42 ft | 11 kts | 216° |
| 2026-05-04 08:51 | 21.66169 | 39.16593 | 41 ft | 5 kts | 253° |
| 2026-05-04 08:51 | 21.66165 | 39.16579 | 41 ft | 2 kts | 253° |
| 2026-05-04 08:52 | 21.66161 | 39.16563 | 41 ft | 4 kts | 253° |
| 2026-05-04 08:52 | 21.66155 | 39.16545 | 40 ft | 3 kts | 254° |
| 2026-05-04 08:52 | 21.66151 | 39.16514 | 40 ft | 5 kts | 271° |
| 2026-05-04 08:52 | 21.66161 | 39.16482 | 39 ft | 5 kts | 300° |
| 2026-05-04 08:53 | 21.66184 | 39.16459 | 40 ft | 4 kts | 333° |
| 2026-05-04 08:54 | 21.70759 | 39.14824 | 1373 ft | 237 kts | 343° |
| 2026-05-04 08:55 | 21.72365 | 39.14292 | 2520 ft | 243 kts | 342° |
| 2026-05-04 08:55 | 21.73974 | 39.13732 | 3821 ft | 241 kts | 341° |
| 2026-05-04 08:55 | 21.75554 | 39.13155 | 5181 ft | 238 kts | 340° |
| 2026-05-04 08:55 | 21.77117 | 39.12551 | 6398 ft | 240 kts | 339° |
| 2026-05-04 08:57 | 21.86287 | 39.19390 | 11120 ft | 278 kts | 44° |
| 2026-05-04 09:01 | 22.08864 | 39.43190 | 16363 ft | 348 kts | 45° |
| 2026-05-04 09:01 | 22.10597 | 39.45041 | 16962 ft | 353 kts | 44° |
| 2026-05-04 09:01 | 22.12357 | 39.46919 | 17556 ft | 357 kts | 44° |
| 2026-05-04 09:01 | 22.14133 | 39.48816 | 18179 ft | 361 kts | 44° |
| 2026-05-04 09:02 | 22.15928 | 39.50732 | 18760 ft | 365 kts | 44° |
| 2026-05-04 09:02 | 22.17737 | 39.52665 | 19367 ft | 368 kts | 44° |
| 2026-05-04 09:02 | 22.19567 | 39.54623 | 19929 ft | 371 kts | 44° |
| 2026-05-04 09:02 | 22.21404 | 39.56589 | 20515 ft | 374 kts | 44° |
| 2026-05-04 09:03 | 22.23264 | 39.58578 | 20964 ft | 380 kts | 43° |
| 2026-05-04 09:03 | 22.25171 | 39.60618 | 20973 ft | 386 kts | 44° |
| 2026-05-04 09:03 | 22.27038 | 39.62620 | 20985 ft | 380 kts | 43° |
| 2026-05-04 09:03 | 22.28911 | 39.64627 | 20980 ft | 378 kts | 43° |
| 2026-05-04 09:04 | 22.30781 | 39.66630 | 20972 ft | 380 kts | 43° |
| 2026-05-04 09:04 | 22.32665 | 39.68649 | 20969 ft | 380 kts | 43° |
| 2026-05-04 09:04 | 22.34542 | 39.70663 | 20977 ft | 381 kts | 43° |
| 2026-05-04 09:04 | 22.36439 | 39.72700 | 21225 ft | 390 kts | 43° |
| 2026-05-04 09:05 | 22.38388 | 39.74790 | 21638 ft | 396 kts | 43° |
| 2026-05-04 09:05 | 22.40349 | 39.76895 | 22152 ft | 399 kts | 43° |
| 2026-05-04 09:05 | 22.42322 | 39.79016 | 22642 ft | 401 kts | 43° |
| 2026-05-04 09:05 | 22.44310 | 39.81153 | 23086 ft | 404 kts | 43° |
| 2026-05-04 09:06 | 22.46312 | 39.83302 | 23531 ft | 407 kts | 41° |
| 2026-05-04 09:07 | 22.61532 | 39.97861 | 26192 ft | 430 kts | 39° |
| 2026-05-04 09:08 | 22.63783 | 40.00016 | 26520 ft | 434 kts | 39° |
| 2026-05-04 09:08 | 22.66062 | 40.02187 | 26888 ft | 438 kts | 39° |
| 2026-05-04 09:08 | 22.68358 | 40.04381 | 27253 ft | 441 kts | 39° |
| 2026-05-04 09:08 | 22.70666 | 40.06593 | 27581 ft | 445 kts | 39° |
| 2026-05-04 09:09 | 22.72998 | 40.08829 | 27939 ft | 449 kts | 39° |
| 2026-05-04 09:09 | 22.77747 | 40.13380 | 28031 ft | 457 kts | 39° |
| 2026-05-04 09:10 | 22.82513 | 40.17953 | 28040 ft | 469 kts | 39° |
| 2026-05-04 09:10 | 22.84984 | 40.20323 | 28058 ft | 480 kts | 39° |
| 2026-05-04 09:10 | 22.87517 | 40.22755 | 28086 ft | 490 kts | 39° |
| 2026-05-04 09:11 | 22.92711 | 40.27753 | 28129 ft | 508 kts | 39° |
| 2026-05-04 09:11 | 22.98088 | 40.32925 | 28183 ft | 523 kts | 39° |
| 2026-05-04 09:12 | 23.03593 | 40.38233 | 28337 ft | 533 kts | 39° |
| 2026-05-04 09:12 | 23.06379 | 40.40919 | 28544 ft | 535 kts | 39° |
| 2026-05-04 09:14 | 23.25957 | 40.60148 | 29734 ft | 552 kts | 49° |
| 2026-05-04 09:14 | 23.29303 | 40.66092 | 30034 ft | 557 kts | 68° |
| 2026-05-04 09:15 | 23.32089 | 40.74005 | 30349 ft | 561 kts | 70° |
| 2026-05-04 09:15 | 23.33455 | 40.77991 | 30537 ft | 562 kts | 70° |
| 2026-05-04 09:15 | 23.34824 | 40.81933 | 30726 ft | 564 kts | 69° |
| 2026-05-04 09:15 | 23.36238 | 40.85978 | 30948 ft | 565 kts | 69° |
| 2026-05-04 09:17 | 23.47239 | 41.17826 | 33361 ft | 559 kts | 70° |
| 2026-05-04 09:18 | 23.48607 | 41.21798 | 33689 ft | 558 kts | 70° |
| 2026-05-04 09:18 | 23.49965 | 41.25754 | 33991 ft | 558 kts | 70° |
| 2026-05-04 09:18 | 23.51323 | 41.29713 | 34302 ft | 557 kts | 70° |
| 2026-05-04 09:18 | 23.52678 | 41.33660 | 34610 ft | 556 kts | 70° |
| 2026-05-04 09:19 | 23.54018 | 41.37564 | 34898 ft | 556 kts | 70° |
| 2026-05-04 09:19 | 23.55371 | 41.41516 | 35204 ft | 555 kts | 70° |
| 2026-05-04 09:19 | 23.56716 | 41.45455 | 35481 ft | 554 kts | 70° |
| 2026-05-04 09:19 | 23.58064 | 41.49399 | 35738 ft | 554 kts | 70° |
| 2026-05-04 09:20 | 23.59411 | 41.53341 | 36008 ft | 554 kts | 70° |
| 2026-05-04 09:20 | 23.60753 | 41.57275 | 36262 ft | 554 kts | 70° |
| 2026-05-04 09:20 | 23.62093 | 41.61209 | 36497 ft | 554 kts | 70° |
| 2026-05-04 09:20 | 23.63434 | 41.65148 | 36738 ft | 553 kts | 70° |
| 2026-05-04 09:21 | 23.64770 | 41.69073 | 37035 ft | 552 kts | 70° |
| 2026-05-04 09:21 | 23.66099 | 41.72984 | 37371 ft | 549 kts | 70° |
| 2026-05-04 09:21 | 23.67398 | 41.76896 | 37677 ft | 545 kts | 73° |
| 2026-05-04 09:21 | 23.68593 | 41.80760 | 37914 ft | 544 kts | 71° |
| 2026-05-04 09:22 | 23.69892 | 41.84695 | 38092 ft | 544 kts | 71° |
| 2026-05-04 09:22 | 23.71162 | 41.88590 | 38253 ft | 545 kts | 72° |
| 2026-05-04 09:22 | 23.72383 | 41.92500 | 38445 ft | 545 kts | 72° |
| 2026-05-04 09:22 | 23.73607 | 41.96414 | 38625 ft | 545 kts | 71° |
| 2026-05-04 09:23 | 23.74877 | 42.00257 | 38806 ft | 545 kts | 68° |
| 2026-05-04 09:23 | 23.76237 | 42.04115 | 38965 ft | 544 kts | 70° |
| 2026-05-04 09:23 | 23.78840 | 42.11913 | 39057 ft | 547 kts | 70° |
| 2026-05-04 09:25 | 23.89393 | 42.42860 | 39049 ft | 542 kts | 70° |
| 2026-05-04 09:26 | 23.91993 | 42.50536 | 39047 ft | 541 kts | 70° |
| 2026-05-04 09:26 | 23.94601 | 42.58247 | 39045 ft | 541 kts | 70° |
| 2026-05-04 09:27 | 23.97205 | 42.65970 | 39047 ft | 541 kts | 70° |
| 2026-05-04 09:27 | 23.99805 | 42.73687 | 39046 ft | 540 kts | 70° |
| 2026-05-04 09:28 | 24.02400 | 42.81423 | 39042 ft | 544 kts | 72° |
| 2026-05-04 09:28 | 24.03328 | 42.85425 | 39067 ft | 543 kts | 85° |
| 2026-05-04 09:28 | 24.03555 | 42.89538 | 39067 ft | 540 kts | 97° |
| 2026-05-04 09:29 | 24.03109 | 42.93592 | 39071 ft | 534 kts | 108° |
| 2026-05-04 09:29 | 24.02061 | 42.97455 | 39063 ft | 528 kts | 114° |
| 2026-05-04 09:29 | 23.99685 | 43.05006 | 39032 ft | 526 kts | 114° |
| 2026-05-04 09:30 | 23.97286 | 43.12567 | 39034 ft | 523 kts | 113° |
| 2026-05-04 09:30 | 23.94913 | 43.20070 | 39037 ft | 521 kts | 113° |
| 2026-05-04 09:31 | 23.92544 | 43.27521 | 39034 ft | 523 kts | 113° |
| 2026-05-04 09:31 | 23.90154 | 43.35041 | 39033 ft | 524 kts | 113° |
| 2026-05-04 09:32 | 23.87759 | 43.42551 | 39036 ft | 523 kts | 113° |
| 2026-05-04 09:34 | 23.78122 | 43.72646 | 39032 ft | 524 kts | 113° |
| 2026-05-04 09:34 | 23.75724 | 43.80100 | 39018 ft | 524 kts | 113° |
| 2026-05-04 09:35 | 23.73304 | 43.87608 | 39018 ft | 524 kts | 113° |
| 2026-05-04 09:35 | 23.70877 | 43.95124 | 39012 ft | 524 kts | 113° |
| 2026-05-04 09:37 | 23.61171 | 44.25041 | 39007 ft | 521 kts | 113° |
| 2026-05-04 09:38 | 23.58759 | 44.32438 | 39008 ft | 522 kts | 113° |
| 2026-05-04 09:38 | 23.56323 | 44.39901 | 39016 ft | 523 kts | 113° |
| 2026-05-04 09:39 | 23.53875 | 44.47382 | 39027 ft | 523 kts | 113° |
| 2026-05-04 09:39 | 23.51433 | 44.54835 | 39027 ft | 521 kts | 113° |
| 2026-05-04 09:40 | 23.48991 | 44.62272 | 39027 ft | 520 kts | 113° |
| 2026-05-04 09:40 | 23.46568 | 44.69636 | 39013 ft | 519 kts | 113° |
| 2026-05-04 09:42 | 23.36796 | 44.99213 | 39009 ft | 518 kts | 113° |
| 2026-05-04 09:43 | 23.34346 | 45.06595 | 39015 ft | 520 kts | 113° |
| 2026-05-04 09:43 | 23.31885 | 45.13999 | 39021 ft | 520 kts | 113° |
| 2026-05-04 09:44 | 23.29419 | 45.21402 | 39011 ft | 519 kts | 113° |
| 2026-05-04 09:46 | 23.23110 | 45.52005 | 39010 ft | 524 kts | 100° |
| 2026-05-04 09:46 | 23.22176 | 45.59869 | 39004 ft | 524 kts | 99° |
| 2026-05-04 09:47 | 23.21248 | 45.67722 | 39012 ft | 524 kts | 100° |
| 2026-05-04 09:49 | 23.17488 | 45.99063 | 38994 ft | 524 kts | 100° |
| 2026-05-04 09:51 | 23.14147 | 46.26489 | 38986 ft | 521 kts | 100° |
| 2026-05-04 09:51 | 23.13184 | 46.34299 | 38990 ft | 522 kts | 100° |
| 2026-05-04 09:52 | 23.12219 | 46.42129 | 38990 ft | 523 kts | 100° |
| 2026-05-04 09:52 | 23.11245 | 46.49972 | 38991 ft | 523 kts | 100° |
| 2026-05-04 09:53 | 23.10270 | 46.57801 | 38974 ft | 523 kts | 100° |
| 2026-05-04 09:53 | 23.09298 | 46.65580 | 38982 ft | 523 kts | 100° |
| 2026-05-04 09:54 | 23.08314 | 46.73416 | 38981 ft | 523 kts | 100° |
| 2026-05-04 09:54 | 23.07327 | 46.81238 | 38980 ft | 521 kts | 100° |
| 2026-05-04 09:55 | 23.06340 | 46.89042 | 38972 ft | 520 kts | 100° |
| 2026-05-04 09:55 | 23.05354 | 46.96794 | 38978 ft | 522 kts | 100° |
| 2026-05-04 09:56 | 23.04356 | 47.04614 | 38982 ft | 523 kts | 100° |
| 2026-05-04 09:56 | 23.03353 | 47.12446 | 38981 ft | 524 kts | 100° |
| 2026-05-04 09:57 | 23.02348 | 47.20270 | 38981 ft | 522 kts | 100° |
| 2026-05-04 09:57 | 23.01339 | 47.28084 | 38977 ft | 520 kts | 100° |
| 2026-05-04 09:58 | 23.00330 | 47.35860 | 38975 ft | 521 kts | 100° |
| 2026-05-04 09:58 | 22.99317 | 47.43644 | 38977 ft | 521 kts | 100° |
| 2026-05-04 10:00 | 22.95224 | 47.74807 | 38956 ft | 520 kts | 100° |
| 2026-05-04 10:04 | 22.88116 | 48.27785 | 38921 ft | 519 kts | 100° |
| 2026-05-04 10:04 | 22.87060 | 48.35530 | 38917 ft | 519 kts | 100° |
| 2026-05-04 10:05 | 22.86001 | 48.43285 | 38919 ft | 519 kts | 100° |
| 2026-05-04 10:05 | 22.84943 | 48.50986 | 38930 ft | 520 kts | 100° |
| 2026-05-04 10:06 | 22.83876 | 48.58749 | 38927 ft | 520 kts | 100° |
| 2026-05-04 10:06 | 22.82803 | 48.66511 | 38916 ft | 519 kts | 100° |
| 2026-05-04 10:08 | 22.79041 | 48.93523 | 38916 ft | 519 kts | 100° |
| 2026-05-04 10:08 | 22.77952 | 49.01274 | 38919 ft | 520 kts | 100° |
| 2026-05-04 10:09 | 22.76862 | 49.09021 | 38905 ft | 520 kts | 100° |
| 2026-05-04 10:09 | 22.75767 | 49.16744 | 38905 ft | 518 kts | 100° |
| 2026-05-04 10:10 | 22.74681 | 49.24399 | 38897 ft | 517 kts | 100° |
| 2026-05-04 10:10 | 22.73585 | 49.32094 | 38897 ft | 518 kts | 100° |
| 2026-05-04 10:11 | 22.72479 | 49.39829 | 38904 ft | 520 kts | 100° |
| 2026-05-04 10:11 | 22.71369 | 49.47574 | 38904 ft | 519 kts | 100° |
| 2026-05-04 10:12 | 22.70258 | 49.55286 | 38900 ft | 516 kts | 100° |
| 2026-05-04 10:12 | 22.69153 | 49.62935 | 38899 ft | 517 kts | 100° |
| 2026-05-04 10:13 | 22.68035 | 49.70653 | 38905 ft | 518 kts | 100° |
| 2026-05-04 10:13 | 22.66915 | 49.78355 | 38904 ft | 517 kts | 100° |
| 2026-05-04 10:14 | 22.65790 | 49.86058 | 38851 ft | 519 kts | 100° |
| 2026-05-04 10:16 | 22.61274 | 50.16732 | 38844 ft | 516 kts | 100° |
| 2026-05-04 10:16 | 22.60132 | 50.24428 | 38846 ft | 517 kts | 100° |
| 2026-05-04 10:17 | 22.58986 | 50.32118 | 38849 ft | 518 kts | 100° |
| 2026-05-04 10:19 | 22.54365 | 50.62886 | 38849 ft | 518 kts | 100° |
| 2026-05-04 10:19 | 22.53201 | 50.70576 | 38848 ft | 518 kts | 100° |
| 2026-05-04 10:20 | 22.52039 | 50.78212 | 38847 ft | 518 kts | 100° |
| 2026-05-04 10:20 | 22.50868 | 50.85896 | 38847 ft | 518 kts | 101° |
| 2026-05-04 10:21 | 22.49692 | 50.93586 | 38848 ft | 517 kts | 100° |
| 2026-05-04 10:21 | 22.48517 | 51.01249 | 38846 ft | 516 kts | 100° |
| 2026-05-04 10:22 | 22.46754 | 51.12679 | 38843 ft | 516 kts | 100° |
| 2026-05-04 10:23 | 22.45568 | 51.20352 | 38846 ft | 517 kts | 100° |
| 2026-05-04 10:25 | 22.40804 | 51.50903 | 38837 ft | 514 kts | 100° |
| 2026-05-04 10:25 | 22.39604 | 51.58528 | 38837 ft | 514 kts | 100° |
| 2026-05-04 10:26 | 22.38404 | 51.66141 | 38827 ft | 513 kts | 100° |
| 2026-05-04 10:26 | 22.37207 | 51.73709 | 38827 ft | 514 kts | 100° |
| 2026-05-04 10:27 | 22.35998 | 51.81320 | 38830 ft | 514 kts | 100° |
| 2026-05-04 10:27 | 22.34791 | 51.88924 | 38830 ft | 513 kts | 100° |
| 2026-05-04 10:28 | 22.33575 | 51.96515 | 38827 ft | 512 kts | 100° |
| 2026-05-04 10:28 | 22.32362 | 52.04113 | 38828 ft | 513 kts | 100° |
| 2026-05-04 10:29 | 22.31138 | 52.11716 | 38819 ft | 514 kts | 100° |
| 2026-05-04 10:29 | 22.29920 | 52.19280 | 38823 ft | 515 kts | 100° |
| 2026-05-04 10:30 | 22.28686 | 52.26910 | 38822 ft | 515 kts | 100° |
| 2026-05-04 10:30 | 22.27451 | 52.34531 | 38823 ft | 514 kts | 101° |
| 2026-05-04 10:31 | 22.26213 | 52.42144 | 38821 ft | 515 kts | 101° |
| 2026-05-04 10:32 | 22.21856 | 52.68747 | 38824 ft | 517 kts | 100° |
| 2026-05-04 10:33 | 22.20598 | 52.76386 | 38821 ft | 515 kts | 101° |
| 2026-05-04 10:33 | 22.19341 | 52.83988 | 38818 ft | 514 kts | 101° |
| 2026-05-04 10:34 | 22.18081 | 52.91580 | 38813 ft | 516 kts | 101° |
| 2026-05-04 10:34 | 22.16821 | 52.99162 | 38814 ft | 517 kts | 100° |
| 2026-05-04 10:35 | 22.15545 | 53.06811 | 38800 ft | 517 kts | 101° |
| 2026-05-04 10:35 | 22.14265 | 53.14457 | 38803 ft | 517 kts | 101° |
| 2026-05-04 10:36 | 22.12983 | 53.22100 | 38796 ft | 517 kts | 101° |
| 2026-05-04 10:36 | 22.11707 | 53.29680 | 38794 ft | 516 kts | 100° |
| 2026-05-04 10:37 | 22.10423 | 53.37288 | 38793 ft | 514 kts | 100° |
| 2026-05-04 10:37 | 22.09137 | 53.44880 | 38787 ft | 514 kts | 101° |
| 2026-05-04 10:39 | 22.04614 | 53.71425 | 38789 ft | 515 kts | 100° |
| 2026-05-04 10:40 | 22.03309 | 53.79029 | 38793 ft | 514 kts | 100° |
| 2026-05-04 10:40 | 22.02006 | 53.86613 | 38794 ft | 514 kts | 100° |
| 2026-05-04 10:41 | 22.00698 | 53.94185 | 38788 ft | 514 kts | 100° |
| 2026-05-04 10:41 | 21.99395 | 54.01719 | 38794 ft | 514 kts | 101° |
| 2026-05-04 10:42 | 21.98081 | 54.09296 | 38795 ft | 515 kts | 101° |
| 2026-05-04 10:42 | 21.96762 | 54.16880 | 38791 ft | 515 kts | 101° |
| 2026-05-04 10:43 | 21.95435 | 54.24482 | 38787 ft | 516 kts | 101° |
| 2026-05-04 10:45 | 21.90123 | 54.54722 | 38789 ft | 515 kts | 101° |
| 2026-05-04 10:45 | 21.88792 | 54.62241 | 38782 ft | 513 kts | 101° |
| 2026-05-04 10:46 | 21.87454 | 54.69783 | 38784 ft | 513 kts | 101° |
| 2026-05-04 10:46 | 21.86113 | 54.77327 | 38779 ft | 511 kts | 101° |
| 2026-05-04 10:47 | 21.84771 | 54.84844 | 38785 ft | 510 kts | 101° |
| 2026-05-04 10:47 | 21.83436 | 54.92311 | 38786 ft | 511 kts | 101° |
| 2026-05-04 10:49 | 21.78038 | 55.22280 | 38785 ft | 511 kts | 101° |
| 2026-05-04 10:50 | 21.76908 | 55.28531 | 38785 ft | 512 kts | 101° |
| 2026-05-04 10:51 | 21.73223 | 55.54879 | 38817 ft | 508 kts | 78° |
| 2026-05-04 10:52 | 21.74097 | 55.58552 | 38819 ft | 507 kts | 67° |
| 2026-05-04 10:52 | 21.75579 | 55.61931 | 38821 ft | 505 kts | 56° |
| 2026-05-04 10:52 | 21.77626 | 55.64993 | 38797 ft | 503 kts | 49° |
| 2026-05-04 10:54 | 21.95189 | 55.88447 | 38760 ft | 503 kts | 49° |
| 2026-05-04 10:56 | 22.12695 | 56.11919 | 38758 ft | 501 kts | 49° |
| 2026-05-04 10:57 | 22.17031 | 56.17749 | 38758 ft | 501 kts | 49° |
| 2026-05-04 10:57 | 22.21399 | 56.23630 | 38760 ft | 502 kts | 49° |
| 2026-05-04 10:58 | 22.25777 | 56.29526 | 38763 ft | 504 kts | 49° |
| 2026-05-04 10:58 | 22.30158 | 56.35438 | 38762 ft | 505 kts | 49° |
| 2026-05-04 10:59 | 22.34547 | 56.41363 | 38755 ft | 505 kts | 49° |
| 2026-05-04 10:59 | 22.38907 | 56.47258 | 38757 ft | 505 kts | 49° |
| 2026-05-04 11:00 | 22.43296 | 56.53199 | 38757 ft | 505 kts | 49° |
| 2026-05-04 11:02 | 22.60788 | 56.76939 | 38723 ft | 505 kts | 49° |
| 2026-05-04 11:06 | 23.00006 | 57.31181 | 40524 ft | 507 kts | 62° |
| 2026-05-04 11:06 | 23.01173 | 57.34239 | 40671 ft | 509 kts | 71° |
| 2026-05-04 11:10 | 23.11337 | 57.68604 | 40716 ft | 509 kts | 70° |
| 2026-05-04 11:12 | 23.19970 | 57.98042 | 40721 ft | 512 kts | 70° |
| 2026-05-04 11:12 | 23.22125 | 58.05427 | 40721 ft | 512 kts | 70° |
| 2026-05-04 11:13 | 23.24279 | 58.12822 | 40719 ft | 513 kts | 70° |
| 2026-05-04 11:13 | 23.26431 | 58.20224 | 40721 ft | 514 kts | 70° |
| 2026-05-04 11:16 | 23.37126 | 58.57227 | 40719 ft | 512 kts | 70° |
| 2026-05-04 11:16 | 23.39250 | 58.64619 | 40715 ft | 511 kts | 70° |
| 2026-05-04 11:17 | 23.41368 | 58.72002 | 40715 ft | 511 kts | 70° |
| 2026-05-04 11:19 | 23.47319 | 58.98495 | 38812 ft | 521 kts | 82° |
| 2026-05-04 11:19 | 23.47691 | 59.02425 | 38731 ft | 516 kts | 82° |
| 2026-05-04 11:19 | 23.48452 | 59.10136 | 38729 ft | 517 kts | 82° |
| 2026-05-04 11:20 | 23.49206 | 59.17979 | 38733 ft | 520 kts | 82° |
| 2026-05-04 11:20 | 23.49962 | 59.25826 | 38730 ft | 521 kts | 82° |
| 2026-05-04 11:22 | 23.52946 | 59.57251 | 38737 ft | 523 kts | 82° |
| 2026-05-04 11:23 | 23.53686 | 59.65154 | 38739 ft | 524 kts | 82° |
| 2026-05-04 11:25 | 23.56121 | 59.91442 | 38735 ft | 523 kts | 82° |
| 2026-05-04 11:25 | 23.56841 | 59.99328 | 38733 ft | 522 kts | 82° |
| 2026-05-04 11:27 | 23.60040 | 60.34866 | 38730 ft | 524 kts | 82° |
| 2026-05-04 11:28 | 23.60740 | 60.42772 | 38728 ft | 522 kts | 82° |
| 2026-05-04 11:28 | 23.61433 | 60.50644 | 38725 ft | 521 kts | 83° |
| 2026-05-04 11:29 | 23.62122 | 60.58518 | 38724 ft | 521 kts | 82° |
| 2026-05-04 11:29 | 23.62805 | 60.66341 | 38725 ft | 521 kts | 82° |
| 2026-05-04 11:33 | 23.67502 | 61.21625 | 38740 ft | 523 kts | 82° |
| 2026-05-04 11:33 | 23.68160 | 61.29549 | 38740 ft | 524 kts | 82° |
| 2026-05-04 11:34 | 23.68817 | 61.37495 | 38742 ft | 525 kts | 82° |
| 2026-05-04 11:34 | 23.69466 | 61.45442 | 38743 ft | 526 kts | 82° |
| 2026-05-04 11:35 | 23.70112 | 61.53366 | 38744 ft | 526 kts | 82° |
| 2026-05-04 11:35 | 23.70754 | 61.61327 | 38745 ft | 527 kts | 82° |
| 2026-05-04 11:36 | 23.71400 | 61.69320 | 38874 ft | 530 kts | 82° |
| 2026-05-04 11:36 | 23.71719 | 61.73337 | 39074 ft | 530 kts | 82° |
| 2026-05-04 11:36 | 23.72038 | 61.77352 | 39255 ft | 530 kts | 82° |
| 2026-05-04 11:37 | 23.72358 | 61.81364 | 39440 ft | 531 kts | 82° |
| 2026-05-04 11:37 | 23.72676 | 61.85375 | 39646 ft | 530 kts | 83° |
| 2026-05-04 11:37 | 23.72991 | 61.89388 | 39823 ft | 530 kts | 83° |
| 2026-05-04 11:37 | 23.73306 | 61.93391 | 40034 ft | 529 kts | 83° |
| 2026-05-04 11:38 | 23.73621 | 61.97394 | 40209 ft | 530 kts | 83° |
| 2026-05-04 11:38 | 23.73930 | 62.01355 | 40394 ft | 529 kts | 83° |
| 2026-05-04 11:38 | 23.74241 | 62.05351 | 40588 ft | 528 kts | 83° |
| 2026-05-04 11:38 | 23.74551 | 62.09342 | 40741 ft | 529 kts | 83° |
| 2026-05-04 11:39 | 23.75170 | 62.17354 | 40733 ft | 527 kts | 83° |
| 2026-05-04 11:41 | 23.77277 | 62.45066 | 40723 ft | 525 kts | 83° |
| 2026-05-04 11:41 | 23.77872 | 62.53015 | 40723 ft | 526 kts | 83° |
| 2026-05-04 11:42 | 23.78459 | 62.60911 | 40725 ft | 524 kts | 83° |
| 2026-05-04 11:42 | 23.79045 | 62.68835 | 40724 ft | 522 kts | 83° |
| 2026-05-04 11:43 | 23.79624 | 62.76735 | 40723 ft | 521 kts | 83° |
| 2026-05-04 11:43 | 23.80200 | 62.84640 | 40720 ft | 523 kts | 83° |
| 2026-05-04 11:44 | 23.80776 | 62.92603 | 40722 ft | 525 kts | 83° |
| 2026-05-04 11:44 | 23.81343 | 63.00502 | 40734 ft | 525 kts | 83° |
| 2026-05-04 11:45 | 23.81908 | 63.08436 | 40731 ft | 524 kts | 83° |
| 2026-05-04 11:45 | 23.82469 | 63.16364 | 40728 ft | 522 kts | 83° |
| 2026-05-04 11:46 | 23.83025 | 63.24275 | 40723 ft | 522 kts | 83° |
| 2026-05-04 11:46 | 23.83579 | 63.32221 | 40727 ft | 523 kts | 83° |
| 2026-05-04 11:47 | 23.84124 | 63.40106 | 40725 ft | 524 kts | 83° |
| 2026-05-04 11:47 | 23.84670 | 63.48047 | 40730 ft | 524 kts | 83° |
| 2026-05-04 11:48 | 23.85213 | 63.56009 | 40719 ft | 526 kts | 83° |
| 2026-05-04 11:48 | 23.85753 | 63.63993 | 40720 ft | 527 kts | 83° |
| 2026-05-04 11:49 | 23.86284 | 63.71913 | 40719 ft | 524 kts | 83° |
| 2026-05-04 11:49 | 23.86813 | 63.79854 | 40714 ft | 524 kts | 83° |
| 2026-05-04 11:50 | 23.87338 | 63.87800 | 40711 ft | 524 kts | 83° |
| 2026-05-04 11:50 | 23.87860 | 63.95749 | 40712 ft | 525 kts | 83° |
| 2026-05-04 11:51 | 23.88378 | 64.03712 | 40710 ft | 525 kts | 83° |
| 2026-05-04 11:51 | 23.88892 | 64.11675 | 40712 ft | 525 kts | 83° |
| 2026-05-04 11:52 | 23.89401 | 64.19639 | 40712 ft | 526 kts | 83° |
| 2026-05-04 11:52 | 23.89905 | 64.27567 | 40714 ft | 526 kts | 84° |
| 2026-05-04 11:53 | 23.90407 | 64.35539 | 40713 ft | 526 kts | 84° |
| 2026-05-04 11:53 | 23.90906 | 64.43526 | 40698 ft | 525 kts | 84° |
| 2026-05-04 11:55 | 23.92848 | 64.75283 | 40692 ft | 526 kts | 84° |
| 2026-05-04 11:56 | 23.93326 | 64.83267 | 40691 ft | 526 kts | 84° |
| 2026-05-04 11:56 | 23.93800 | 64.91253 | 40693 ft | 526 kts | 84° |
| 2026-05-04 11:57 | 23.94269 | 64.99230 | 40692 ft | 526 kts | 83° |
| 2026-05-04 11:57 | 23.94734 | 65.07202 | 40692 ft | 526 kts | 84° |
| 2026-05-04 11:58 | 23.95196 | 65.15192 | 40678 ft | 527 kts | 83° |
| 2026-05-04 11:58 | 23.95650 | 65.23139 | 40680 ft | 527 kts | 83° |
| 2026-05-04 11:59 | 23.96105 | 65.31147 | 40681 ft | 527 kts | 83° |
| 2026-05-04 11:59 | 23.96555 | 65.39145 | 40681 ft | 528 kts | 83° |
| 2026-05-04 12:00 | 23.97001 | 65.47166 | 40682 ft | 528 kts | 83° |
| 2026-05-04 12:00 | 23.97443 | 65.55180 | 40671 ft | 528 kts | 83° |
| 2026-05-04 12:01 | 23.97880 | 65.63166 | 40671 ft | 529 kts | 83° |
| 2026-05-04 12:02 | 23.99384 | 65.91289 | 40666 ft | 527 kts | 83° |
| 2026-05-04 12:03 | 23.99799 | 65.99238 | 40663 ft | 527 kts | 83° |
| 2026-05-04 12:03 | 24.00215 | 66.07260 | 40662 ft | 527 kts | 83° |
| 2026-05-04 12:04 | 24.00628 | 66.15305 | 40661 ft | 533 kts | 84° |
| 2026-05-04 12:04 | 24.01038 | 66.23428 | 40667 ft | 535 kts | 84° |
| 2026-05-04 12:05 | 24.01445 | 66.31522 | 40664 ft | 534 kts | 84° |
| 2026-05-04 12:05 | 24.01848 | 66.39633 | 40664 ft | 535 kts | 84° |
| 2026-05-04 12:06 | 24.02247 | 66.47758 | 40664 ft | 535 kts | 84° |
| 2026-05-04 12:06 | 24.02643 | 66.55900 | 40649 ft | 535 kts | 84° |
| 2026-05-04 12:07 | 24.03034 | 66.64033 | 40650 ft | 535 kts | 84° |
| 2026-05-04 12:07 | 24.03420 | 66.72168 | 40650 ft | 535 kts | 84° |
| 2026-05-04 12:08 | 24.03803 | 66.80307 | 40652 ft | 536 kts | 84° |
| 2026-05-04 12:08 | 24.04182 | 66.88468 | 40649 ft | 538 kts | 84° |
| 2026-05-04 12:09 | 24.04556 | 66.96600 | 40653 ft | 538 kts | 84° |
| 2026-05-04 12:09 | 24.04926 | 67.04763 | 40651 ft | 537 kts | 84° |
| 2026-05-04 12:10 | 24.05293 | 67.12916 | 40650 ft | 536 kts | 84° |
| 2026-05-04 12:10 | 24.05593 | 67.19688 | 40648 ft | 535 kts | 84° |
| 2026-05-04 12:11 | 24.05952 | 67.27849 | 40647 ft | 536 kts | 84° |
| 2026-05-04 12:11 | 24.06306 | 67.36017 | 40651 ft | 538 kts | 84° |
| 2026-05-04 12:12 | 24.06657 | 67.44223 | 40651 ft | 539 kts | 84° |
| 2026-05-04 12:12 | 24.07003 | 67.52408 | 40655 ft | 538 kts | 84° |
| 2026-05-04 12:14 | 24.08340 | 67.85030 | 40648 ft | 535 kts | 84° |
| 2026-05-04 12:15 | 24.08661 | 67.93128 | 40648 ft | 536 kts | 85° |
| 2026-05-04 12:15 | 24.08981 | 68.01296 | 40652 ft | 538 kts | 85° |
| 2026-05-04 12:16 | 24.09296 | 68.09483 | 40656 ft | 539 kts | 85° |
| 2026-05-04 12:16 | 24.09608 | 68.17678 | 40660 ft | 538 kts | 85° |
| 2026-05-04 12:17 | 24.09915 | 68.25862 | 40656 ft | 537 kts | 85° |
| 2026-05-04 12:17 | 24.10217 | 68.34025 | 40659 ft | 536 kts | 85° |
| 2026-05-04 12:18 | 24.10514 | 68.42168 | 40670 ft | 535 kts | 85° |
| 2026-05-04 12:18 | 24.10806 | 68.50294 | 40671 ft | 537 kts | 85° |
| 2026-05-04 12:19 | 24.11096 | 68.58505 | 40677 ft | 540 kts | 85° |
| 2026-05-04 12:19 | 24.11380 | 68.66668 | 40680 ft | 540 kts | 85° |
| 2026-05-04 12:20 | 24.11604 | 68.74887 | 40687 ft | 539 kts | 92° |
| 2026-05-04 12:20 | 24.11106 | 68.78963 | 40706 ft | 542 kts | 104° |
| 2026-05-04 12:20 | 24.10115 | 68.82948 | 40686 ft | 543 kts | 105° |
| 2026-05-04 12:21 | 24.08049 | 68.90911 | 40693 ft | 544 kts | 105° |
| 2026-05-04 12:21 | 24.06006 | 68.98840 | 40703 ft | 544 kts | 105° |
| 2026-05-04 12:22 | 24.03935 | 69.06827 | 40701 ft | 546 kts | 105° |
| 2026-05-04 12:22 | 24.01859 | 69.14826 | 40703 ft | 545 kts | 105° |
| 2026-05-04 12:23 | 23.99788 | 69.22787 | 40701 ft | 543 kts | 105° |
| 2026-05-04 12:23 | 23.97733 | 69.30659 | 40701 ft | 539 kts | 105° |
| 2026-05-04 12:24 | 23.95672 | 69.38549 | 40709 ft | 539 kts | 105° |
| 2026-05-04 12:24 | 23.93601 | 69.46452 | 40707 ft | 542 kts | 105° |
| 2026-05-04 12:25 | 23.91518 | 69.54382 | 40711 ft | 543 kts | 105° |
| 2026-05-04 12:25 | 23.89427 | 69.62327 | 40715 ft | 543 kts | 105° |
| 2026-05-04 12:26 | 23.87335 | 69.70259 | 40716 ft | 543 kts | 105° |
| 2026-05-04 12:26 | 23.85247 | 69.78156 | 40707 ft | 543 kts | 105° |
| 2026-05-04 12:27 | 23.83147 | 69.86081 | 40707 ft | 544 kts | 105° |
| 2026-05-04 12:27 | 23.81035 | 69.94033 | 40707 ft | 544 kts | 105° |
| 2026-05-04 12:28 | 23.78935 | 70.01922 | 40708 ft | 544 kts | 105° |
| 2026-05-04 12:28 | 23.76818 | 70.09858 | 40708 ft | 543 kts | 106° |
| 2026-05-04 12:29 | 23.74704 | 70.17764 | 40708 ft | 541 kts | 106° |
| 2026-05-04 12:29 | 23.72593 | 70.25640 | 40703 ft | 540 kts | 106° |
| 2026-05-04 12:30 | 23.70480 | 70.33510 | 40702 ft | 541 kts | 106° |
| 2026-05-04 12:30 | 23.68354 | 70.41407 | 40704 ft | 542 kts | 106° |
| 2026-05-04 12:31 | 23.66242 | 70.49238 | 40707 ft | 541 kts | 106° |
| 2026-05-04 12:31 | 23.64113 | 70.57113 | 40705 ft | 540 kts | 106° |
| 2026-05-04 12:32 | 23.60924 | 70.68875 | 40699 ft | 539 kts | 106° |
| 2026-05-04 12:33 | 23.58794 | 70.76711 | 40698 ft | 538 kts | 106° |
| 2026-05-04 12:33 | 23.56666 | 70.84522 | 40697 ft | 536 kts | 106° |
| 2026-05-04 12:34 | 23.54553 | 70.92265 | 40698 ft | 537 kts | 107° |
| 2026-05-04 12:34 | 23.52412 | 71.00089 | 40701 ft | 539 kts | 107° |
| 2026-05-04 12:35 | 23.50262 | 71.07931 | 40692 ft | 540 kts | 107° |
| 2026-05-04 12:35 | 23.48109 | 71.15767 | 40691 ft | 540 kts | 107° |
| 2026-05-04 12:36 | 23.45954 | 71.23592 | 40691 ft | 538 kts | 107° |
| 2026-05-04 12:36 | 23.43806 | 71.31378 | 40678 ft | 536 kts | 107° |
| 2026-05-04 12:37 | 23.41670 | 71.39103 | 40675 ft | 536 kts | 107° |
| 2026-05-04 12:37 | 23.39515 | 71.46879 | 40675 ft | 537 kts | 107° |
| 2026-05-04 12:38 | 23.37351 | 71.54670 | 40671 ft | 537 kts | 107° |
| 2026-05-04 12:38 | 23.35189 | 71.62440 | 40674 ft | 539 kts | 107° |
| 2026-05-04 12:39 | 23.33010 | 71.70253 | 40674 ft | 540 kts | 107° |
| 2026-05-04 12:39 | 23.30825 | 71.78073 | 40657 ft | 538 kts | 107° |
| 2026-05-04 12:40 | 23.28649 | 71.85842 | 40654 ft | 536 kts | 107° |
| 2026-05-04 12:40 | 23.26473 | 71.93596 | 40651 ft | 536 kts | 107° |
| 2026-05-04 12:41 | 23.24288 | 72.01367 | 40651 ft | 537 kts | 107° |
| 2026-05-04 12:41 | 23.22108 | 72.09103 | 40653 ft | 539 kts | 107° |
| 2026-05-04 12:42 | 23.19907 | 72.16898 | 40653 ft | 538 kts | 108° |
| 2026-05-04 12:42 | 23.17710 | 72.24663 | 40651 ft | 536 kts | 108° |
| 2026-05-04 12:43 | 23.15514 | 72.32408 | 40639 ft | 535 kts | 108° |
| 2026-05-04 12:43 | 23.13313 | 72.40156 | 40638 ft | 536 kts | 108° |
| 2026-05-04 12:44 | 23.11106 | 72.47906 | 40641 ft | 538 kts | 108° |
| 2026-05-04 12:44 | 23.08906 | 72.55619 | 40646 ft | 539 kts | 108° |
| 2026-05-04 12:45 | 23.06680 | 72.63406 | 40646 ft | 539 kts | 108° |
| 2026-05-04 12:45 | 23.04463 | 72.71183 | 40644 ft | 537 kts | 108° |
| 2026-05-04 12:46 | 23.02253 | 72.78922 | 40640 ft | 536 kts | 108° |
| 2026-05-04 12:46 | 23.00051 | 72.86612 | 40636 ft | 535 kts | 108° |
| 2026-05-04 12:47 | 22.97837 | 72.94329 | 40643 ft | 536 kts | 108° |
| 2026-05-04 12:47 | 22.95612 | 73.02070 | 40645 ft | 537 kts | 108° |
| 2026-05-04 12:48 | 22.93393 | 73.09777 | 40652 ft | 539 kts | 108° |
| 2026-05-04 12:48 | 22.91153 | 73.17537 | 40653 ft | 538 kts | 108° |
| 2026-05-04 12:49 | 22.88918 | 73.25270 | 40651 ft | 537 kts | 109° |
| 2026-05-04 12:49 | 22.86679 | 73.32995 | 40662 ft | 535 kts | 109° |
| 2026-05-04 12:50 | 22.84446 | 73.40686 | 40658 ft | 534 kts | 109° |
| 2026-05-04 12:50 | 22.82226 | 73.48321 | 40659 ft | 535 kts | 109° |
| 2026-05-04 12:51 | 22.79981 | 73.56021 | 40662 ft | 536 kts | 109° |
| 2026-05-04 12:51 | 22.77726 | 73.63744 | 40666 ft | 537 kts | 109° |
| 2026-05-04 12:52 | 22.75464 | 73.71473 | 40670 ft | 537 kts | 109° |
| 2026-05-04 12:52 | 22.73206 | 73.79175 | 40671 ft | 537 kts | 109° |
| 2026-05-04 12:53 | 22.70951 | 73.86850 | 40671 ft | 536 kts | 109° |
| 2026-05-04 12:53 | 22.68683 | 73.94555 | 40671 ft | 536 kts | 109° |
| 2026-05-04 12:54 | 22.66413 | 74.02254 | 40671 ft | 536 kts | 109° |
| 2026-05-04 12:54 | 22.64142 | 74.09939 | 40670 ft | 535 kts | 109° |
| 2026-05-04 12:55 | 22.61890 | 74.17544 | 40676 ft | 533 kts | 110° |
| 2026-05-04 12:55 | 22.59624 | 74.25192 | 40675 ft | 534 kts | 109° |
| 2026-05-04 12:56 | 22.57368 | 74.32874 | 40693 ft | 535 kts | 109° |
| 2026-05-04 12:56 | 22.55090 | 74.40571 | 40696 ft | 536 kts | 110° |
| 2026-05-04 12:57 | 22.52833 | 74.48207 | 40701 ft | 536 kts | 110° |
| 2026-05-04 12:57 | 22.50559 | 74.55878 | 40699 ft | 535 kts | 110° |
| 2026-05-04 12:58 | 22.48283 | 74.63540 | 40706 ft | 535 kts | 110° |
| 2026-05-04 12:58 | 22.46388 | 74.69910 | 40708 ft | 535 kts | 110° |
| 2026-05-04 12:59 | 22.44111 | 74.77549 | 40718 ft | 533 kts | 110° |
| 2026-05-04 12:59 | 22.41838 | 74.85162 | 40714 ft | 532 kts | 110° |
| 2026-05-04 13:00 | 22.39558 | 74.92779 | 40723 ft | 533 kts | 110° |
| 2026-05-04 13:00 | 22.37273 | 75.00405 | 40723 ft | 533 kts | 110° |
| 2026-05-04 13:01 | 22.34997 | 75.07983 | 40739 ft | 533 kts | 110° |
| 2026-05-04 13:01 | 22.32700 | 75.15616 | 40746 ft | 532 kts | 110° |
| 2026-05-04 13:02 | 22.30408 | 75.23220 | 40766 ft | 531 kts | 110° |
| 2026-05-04 13:02 | 22.28132 | 75.30754 | 40761 ft | 530 kts | 110° |
| 2026-05-04 13:03 | 22.25836 | 75.38343 | 40761 ft | 531 kts | 110° |
| 2026-05-04 13:03 | 22.23538 | 75.45923 | 40765 ft | 531 kts | 110° |
| 2026-05-04 13:04 | 22.21238 | 75.53496 | 40766 ft | 531 kts | 110° |
| 2026-05-04 13:04 | 22.18949 | 75.61019 | 40766 ft | 530 kts | 110° |
| 2026-05-04 13:05 | 22.16645 | 75.68577 | 40768 ft | 529 kts | 110° |
| 2026-05-04 13:05 | 22.14344 | 75.76111 | 40764 ft | 528 kts | 110° |
| 2026-05-04 13:06 | 22.12049 | 75.83615 | 40766 ft | 529 kts | 110° |
| 2026-05-04 13:06 | 22.09744 | 75.91134 | 40747 ft | 528 kts | 110° |
| 2026-05-04 13:07 | 22.07437 | 75.98649 | 40748 ft | 527 kts | 110° |
| 2026-05-04 13:07 | 22.04979 | 76.06096 | 40751 ft | 528 kts | 111° |
| 2026-05-04 13:08 | 22.02579 | 76.13542 | 40745 ft | 529 kts | 112° |
| 2026-05-04 13:08 | 22.00073 | 76.21010 | 40751 ft | 529 kts | 111° |
| 2026-05-04 13:09 | 21.97619 | 76.28500 | 40743 ft | 529 kts | 112° |
| 2026-05-04 13:09 | 21.95129 | 76.35967 | 40744 ft | 527 kts | 112° |
| 2026-05-04 13:10 | 21.92670 | 76.43396 | 40738 ft | 526 kts | 112° |
| 2026-05-04 13:10 | 21.90216 | 76.50760 | 40747 ft | 525 kts | 112° |
| 2026-05-04 13:11 | 21.87747 | 76.58180 | 40735 ft | 524 kts | 112° |
| 2026-05-04 13:11 | 21.85281 | 76.65561 | 40734 ft | 523 kts | 112° |
| 2026-05-04 13:12 | 21.82814 | 76.72939 | 40739 ft | 524 kts | 112° |
| 2026-05-04 13:12 | 21.80357 | 76.80278 | 40736 ft | 523 kts | 112° |
| 2026-05-04 13:13 | 21.77884 | 76.87648 | 40735 ft | 522 kts | 112° |
| 2026-05-04 13:13 | 21.75417 | 76.94989 | 40734 ft | 520 kts | 112° |
| 2026-05-04 13:14 | 21.72958 | 77.02295 | 40737 ft | 520 kts | 112° |
| 2026-05-04 13:14 | 21.70495 | 77.09601 | 40736 ft | 519 kts | 112° |
| 2026-05-04 13:15 | 21.68045 | 77.16854 | 40741 ft | 518 kts | 112° |
| 2026-05-04 13:15 | 21.65579 | 77.24145 | 40734 ft | 518 kts | 112° |
| 2026-05-04 13:16 | 21.63113 | 77.31421 | 40728 ft | 518 kts | 112° |
| 2026-05-04 13:16 | 21.60661 | 77.38677 | 40719 ft | 520 kts | 110° |
| 2026-05-04 13:17 | 21.58309 | 77.46031 | 40722 ft | 519 kts | 112° |
| 2026-05-04 13:17 | 21.55936 | 77.53361 | 40718 ft | 518 kts | 111° |
| 2026-05-04 13:18 | 21.53600 | 77.60674 | 40714 ft | 516 kts | 112° |
| 2026-05-04 13:18 | 21.51250 | 77.67916 | 40723 ft | 517 kts | 111° |
| 2026-05-04 13:19 | 21.48984 | 77.75262 | 40732 ft | 518 kts | 110° |
| 2026-05-04 13:19 | 21.46723 | 77.82610 | 40727 ft | 518 kts | 111° |
| 2026-05-04 13:20 | 21.44441 | 77.89954 | 40730 ft | 518 kts | 111° |
| 2026-05-04 13:20 | 21.42186 | 77.97257 | 40738 ft | 517 kts | 111° |
| 2026-05-04 13:21 | 21.39906 | 78.04582 | 40737 ft | 517 kts | 111° |
| 2026-05-04 13:21 | 21.37639 | 78.11887 | 40733 ft | 515 kts | 111° |
| 2026-05-04 13:22 | 21.35367 | 78.19172 | 40728 ft | 514 kts | 111° |
| 2026-05-04 13:22 | 21.33111 | 78.26406 | 40732 ft | 514 kts | 111° |
| 2026-05-04 13:23 | 21.30835 | 78.33684 | 40728 ft | 516 kts | 111° |
| 2026-05-04 13:23 | 21.28547 | 78.40996 | 40733 ft | 517 kts | 111° |
| 2026-05-04 13:24 | 21.26251 | 78.48315 | 40735 ft | 516 kts | 111° |
| 2026-05-04 13:24 | 21.23961 | 78.55604 | 40733 ft | 515 kts | 111° |
| 2026-05-04 13:25 | 21.20542 | 78.66466 | 40724 ft | 514 kts | 111° |
| 2026-05-04 13:25 | 21.18253 | 78.73722 | 40727 ft | 513 kts | 111° |
| 2026-05-04 13:26 | 21.15972 | 78.80976 | 40724 ft | 514 kts | 111° |
| 2026-05-04 13:26 | 21.13695 | 78.88211 | 40730 ft | 515 kts | 111° |
| 2026-05-04 13:27 | 21.11396 | 78.95496 | 40726 ft | 516 kts | 111° |
| 2026-05-04 13:27 | 21.09093 | 79.02788 | 40731 ft | 517 kts | 111° |
| 2026-05-04 13:28 | 21.06958 | 79.10119 | 40726 ft | 515 kts | 109° |
| 2026-05-04 13:28 | 21.04819 | 79.17443 | 40726 ft | 516 kts | 109° |
| 2026-05-04 13:29 | 21.02768 | 79.24768 | 40727 ft | 516 kts | 109° |
| 2026-05-04 13:29 | 21.00657 | 79.32109 | 40728 ft | 516 kts | 109° |
| 2026-05-04 13:30 | 20.98561 | 79.39478 | 40734 ft | 516 kts | 109° |
| 2026-05-04 13:30 | 20.96456 | 79.46823 | 40734 ft | 515 kts | 109° |
| 2026-05-04 13:31 | 20.94361 | 79.54139 | 40730 ft | 513 kts | 109° |
| 2026-05-04 13:31 | 20.92279 | 79.61389 | 40731 ft | 512 kts | 109° |
| 2026-05-04 13:32 | 20.90180 | 79.68685 | 40732 ft | 513 kts | 109° |
| 2026-05-04 13:32 | 20.88077 | 79.75986 | 40748 ft | 514 kts | 109° |
| 2026-05-04 13:33 | 20.85969 | 79.83290 | 40743 ft | 514 kts | 109° |
| 2026-05-04 13:33 | 20.83855 | 79.90603 | 40739 ft | 513 kts | 109° |
| 2026-05-04 13:34 | 20.81743 | 79.97893 | 40737 ft | 512 kts | 109° |
| 2026-05-04 13:34 | 20.79651 | 80.05106 | 40729 ft | 511 kts | 109° |
| 2026-05-04 13:35 | 20.76494 | 80.15961 | 40732 ft | 510 kts | 109° |
| 2026-05-04 13:36 | 20.74388 | 80.23189 | 40735 ft | 509 kts | 109° |
| 2026-05-04 13:36 | 20.72278 | 80.30418 | 40747 ft | 510 kts | 109° |
| 2026-05-04 13:37 | 20.70161 | 80.37660 | 40749 ft | 511 kts | 109° |
| 2026-05-04 13:37 | 20.68037 | 80.44912 | 40752 ft | 511 kts | 109° |
| 2026-05-04 13:38 | 20.65912 | 80.52153 | 40746 ft | 511 kts | 109° |
| 2026-05-04 13:38 | 20.63782 | 80.59400 | 40747 ft | 511 kts | 110° |
| 2026-05-04 13:39 | 20.61654 | 80.66629 | 40746 ft | 510 kts | 110° |
| 2026-05-04 13:39 | 20.59538 | 80.73804 | 40762 ft | 510 kts | 110° |
| 2026-05-04 13:40 | 20.57407 | 80.81022 | 40747 ft | 509 kts | 110° |
| 2026-05-04 13:40 | 20.55272 | 80.88239 | 40752 ft | 510 kts | 110° |
| 2026-05-04 13:41 | 20.53133 | 80.95456 | 40760 ft | 509 kts | 110° |
| 2026-05-04 13:41 | 20.50994 | 81.02660 | 40759 ft | 509 kts | 110° |
| 2026-05-04 13:42 | 20.47791 | 81.13426 | 40760 ft | 509 kts | 110° |
| 2026-05-04 13:42 | 20.45647 | 81.20621 | 40762 ft | 508 kts | 110° |
| 2026-05-04 13:43 | 20.43510 | 81.27810 | 40760 ft | 508 kts | 109° |
| 2026-05-04 13:43 | 20.41464 | 81.35009 | 40764 ft | 507 kts | 109° |
| 2026-05-04 13:44 | 20.39382 | 81.42150 | 40762 ft | 508 kts | 109° |
| 2026-05-04 13:44 | 20.37301 | 81.49366 | 40767 ft | 510 kts | 109° |
| 2026-05-04 13:45 | 20.35203 | 81.56585 | 40770 ft | 510 kts | 109° |
| 2026-05-04 13:45 | 20.33106 | 81.63806 | 40772 ft | 509 kts | 109° |
| 2026-05-04 13:46 | 20.31360 | 81.69805 | 40770 ft | 508 kts | 110° |
| 2026-05-04 13:46 | 20.28926 | 81.78153 | 40768 ft | 506 kts | 109° |
| 2026-05-04 13:47 | 20.27189 | 81.84104 | 40766 ft | 505 kts | 110° |
| 2026-05-04 13:47 | 20.25093 | 81.91268 | 40770 ft | 506 kts | 110° |
| 2026-05-04 13:48 | 20.22993 | 81.98437 | 40777 ft | 507 kts | 110° |
| 2026-05-04 13:48 | 20.20558 | 82.05457 | 40781 ft | 505 kts | 113° |
| 2026-05-04 13:49 | 20.18084 | 82.12421 | 40784 ft | 505 kts | 113° |
| 2026-05-04 13:49 | 20.15561 | 82.19416 | 40786 ft | 506 kts | 113° |
| 2026-05-04 13:50 | 20.13051 | 82.26422 | 40787 ft | 506 kts | 113° |
| 2026-05-04 13:50 | 20.10528 | 82.33422 | 40789 ft | 507 kts | 113° |
| 2026-05-04 13:51 | 20.08006 | 82.40427 | 40792 ft | 507 kts | 113° |
| 2026-05-04 13:51 | 20.05491 | 82.47395 | 40794 ft | 507 kts | 114° |
| 2026-05-04 13:52 | 20.01694 | 82.57900 | 40792 ft | 506 kts | 114° |
| 2026-05-04 13:53 | 19.99164 | 82.64885 | 40790 ft | 506 kts | 114° |
| 2026-05-04 13:53 | 19.96630 | 82.71875 | 40790 ft | 505 kts | 114° |
| 2026-05-04 13:54 | 19.92858 | 82.82259 | 40789 ft | 503 kts | 114° |
| 2026-05-04 13:55 | 19.89073 | 82.92666 | 40790 ft | 503 kts | 113° |
| 2026-05-04 13:55 | 19.85350 | 83.03155 | 40798 ft | 507 kts | 113° |
| 2026-05-04 13:56 | 19.82852 | 83.10113 | 40801 ft | 507 kts | 113° |
| 2026-05-04 13:57 | 19.79091 | 83.20625 | 40803 ft | 506 kts | 113° |
| 2026-05-04 13:58 | 19.74085 | 83.34571 | 40801 ft | 506 kts | 113° |
| 2026-05-04 13:58 | 19.70313 | 83.45051 | 40799 ft | 505 kts | 113° |
| 2026-05-04 13:59 | 19.67819 | 83.51970 | 40796 ft | 504 kts | 113° |
| 2026-05-04 14:00 | 19.64055 | 83.62394 | 40800 ft | 504 kts | 113° |
| 2026-05-04 14:00 | 19.60273 | 83.72844 | 40807 ft | 506 kts | 113° |
| 2026-05-04 14:01 | 19.57742 | 83.79825 | 40808 ft | 507 kts | 113° |
| 2026-05-04 14:02 | 19.53943 | 83.90287 | 40809 ft | 506 kts | 113° |
| 2026-05-04 14:02 | 19.51426 | 83.97207 | 40801 ft | 506 kts | 113° |
| 2026-05-04 14:03 | 19.48889 | 84.04172 | 40799 ft | 506 kts | 113° |
| 2026-05-04 14:03 | 19.46346 | 84.11146 | 40799 ft | 506 kts | 113° |
| 2026-05-04 14:04 | 19.42558 | 84.21553 | 40804 ft | 507 kts | 110° |
| 2026-05-04 14:04 | 19.40481 | 84.28706 | 40803 ft | 508 kts | 109° |
| 2026-05-04 14:05 | 19.37353 | 84.39447 | 40804 ft | 509 kts | 109° |
| 2026-05-04 14:06 | 19.35267 | 84.46603 | 40802 ft | 508 kts | 109° |
| 2026-05-04 14:06 | 19.33182 | 84.53746 | 40801 ft | 507 kts | 109° |
| 2026-05-04 14:07 | 19.31097 | 84.60882 | 40801 ft | 506 kts | 109° |
| 2026-05-04 14:07 | 19.29022 | 84.67966 | 40798 ft | 507 kts | 109° |
| 2026-05-04 14:08 | 19.26928 | 84.75111 | 40796 ft | 507 kts | 109° |
| 2026-05-04 14:08 | 19.24845 | 84.82201 | 40797 ft | 507 kts | 109° |
| 2026-05-04 14:09 | 19.21705 | 84.92874 | 40796 ft | 506 kts | 109° |
| 2026-05-04 14:10 | 19.18558 | 85.03541 | 40796 ft | 506 kts | 109° |
| 2026-05-04 14:10 | 19.16454 | 85.10659 | 40798 ft | 507 kts | 109° |
| 2026-05-04 14:11 | 19.14346 | 85.17782 | 40799 ft | 507 kts | 109° |
| 2026-05-04 14:11 | 19.11128 | 85.28383 | 40807 ft | 505 kts | 111° |
| 2026-05-04 14:12 | 19.08887 | 85.35447 | 40801 ft | 507 kts | 110° |
| 2026-05-04 14:13 | 19.05446 | 85.46029 | 40803 ft | 507 kts | 110° |
| 2026-05-04 14:13 | 19.03181 | 85.53094 | 40804 ft | 506 kts | 110° |
| 2026-05-04 14:14 | 19.00892 | 85.60125 | 40807 ft | 505 kts | 110° |
| 2026-05-04 14:14 | 18.97492 | 85.70617 | 40798 ft | 504 kts | 111° |
| 2026-05-04 14:15 | 18.92913 | 85.84690 | 40803 ft | 508 kts | 110° |
| 2026-05-04 14:16 | 18.89532 | 85.95332 | 40812 ft | 508 kts | 110° |
| 2026-05-04 14:17 | 18.86164 | 86.05869 | 40798 ft | 507 kts | 110° |
| 2026-05-04 14:18 | 18.82777 | 86.16497 | 40799 ft | 507 kts | 110° |
| 2026-05-04 14:19 | 18.78269 | 86.30587 | 40824 ft | 508 kts | 110° |
| 2026-05-04 14:19 | 18.75998 | 86.37671 | 40827 ft | 509 kts | 110° |
| 2026-05-04 14:20 | 18.73729 | 86.44740 | 40825 ft | 507 kts | 110° |
| 2026-05-04 14:20 | 18.71474 | 86.51752 | 40821 ft | 506 kts | 110° |
| 2026-05-04 14:21 | 18.68078 | 86.62295 | 40815 ft | 505 kts | 110° |
| 2026-05-04 14:21 | 18.65825 | 86.69279 | 40816 ft | 507 kts | 110° |
| 2026-05-04 14:22 | 18.63545 | 86.76334 | 40820 ft | 508 kts | 110° |
| 2026-05-04 14:22 | 18.61255 | 86.83411 | 40826 ft | 509 kts | 110° |
| 2026-05-04 14:23 | 18.57839 | 86.93947 | 40825 ft | 507 kts | 110° |
| 2026-05-04 14:24 | 18.55558 | 87.00974 | 40824 ft | 506 kts | 110° |
| 2026-05-04 14:24 | 18.53275 | 87.07993 | 40825 ft | 506 kts | 110° |
| 2026-05-04 14:25 | 18.50997 | 87.14987 | 40825 ft | 506 kts | 110° |
| 2026-05-04 14:25 | 18.47568 | 87.25501 | 40825 ft | 504 kts | 110° |
| 2026-05-04 14:26 | 18.45279 | 87.32503 | 40826 ft | 505 kts | 110° |
| 2026-05-04 14:26 | 18.42999 | 87.39472 | 40830 ft | 507 kts | 110° |
| 2026-05-04 14:27 | 18.40692 | 87.46511 | 40835 ft | 509 kts | 110° |
| 2026-05-04 14:27 | 18.38379 | 87.53560 | 40836 ft | 508 kts | 110° |
| 2026-05-04 14:28 | 18.36072 | 87.60580 | 40834 ft | 506 kts | 110° |
| 2026-05-04 14:28 | 18.33777 | 87.67557 | 40830 ft | 504 kts | 110° |
| 2026-05-04 14:29 | 18.29185 | 87.81482 | 40831 ft | 506 kts | 110° |
| 2026-05-04 14:30 | 18.26899 | 87.88503 | 40835 ft | 506 kts | 109° |
| 2026-05-04 14:31 | 18.23531 | 87.99010 | 40834 ft | 504 kts | 109° |
| 2026-05-04 14:32 | 18.19030 | 88.12975 | 40830 ft | 504 kts | 109° |
| 2026-05-04 14:32 | 18.17155 | 88.18770 | 40830 ft | 504 kts | 109° |
| 2026-05-04 14:33 | 18.14902 | 88.25743 | 40830 ft | 504 kts | 109° |
| 2026-05-04 14:33 | 18.12640 | 88.32722 | 40830 ft | 504 kts | 109° |
| 2026-05-04 14:34 | 18.10370 | 88.39721 | 40832 ft | 506 kts | 109° |
| 2026-05-04 14:34 | 18.08091 | 88.46735 | 40837 ft | 507 kts | 109° |
| 2026-05-04 14:35 | 18.05810 | 88.53748 | 40838 ft | 507 kts | 109° |
| 2026-05-04 14:35 | 18.03542 | 88.60711 | 40837 ft | 506 kts | 109° |
| 2026-05-04 14:36 | 18.01255 | 88.67721 | 40835 ft | 507 kts | 109° |
| 2026-05-04 14:36 | 17.98966 | 88.74730 | 40838 ft | 508 kts | 109° |
| 2026-05-04 14:37 | 17.96675 | 88.81733 | 40838 ft | 506 kts | 109° |
| 2026-05-04 14:37 | 17.94423 | 88.88682 | 40834 ft | 504 kts | 109° |
| 2026-05-04 14:38 | 17.92216 | 88.95681 | 40831 ft | 504 kts | 109° |
| 2026-05-04 14:38 | 17.89968 | 89.02668 | 40833 ft | 506 kts | 109° |
| 2026-05-04 14:39 | 17.87730 | 89.09694 | 40838 ft | 507 kts | 109° |
| 2026-05-04 14:39 | 17.85486 | 89.16683 | 40842 ft | 508 kts | 109° |
| 2026-05-04 14:40 | 17.82105 | 89.27227 | 40843 ft | 508 kts | 109° |
| 2026-05-04 14:40 | 17.79845 | 89.34257 | 40842 ft | 509 kts | 109° |
| 2026-05-04 14:41 | 17.77578 | 89.41304 | 40841 ft | 510 kts | 109° |
| 2026-05-04 14:42 | 17.73056 | 89.55322 | 40835 ft | 507 kts | 109° |
| 2026-05-04 14:42 | 17.70788 | 89.62339 | 40833 ft | 508 kts | 109° |
| 2026-05-04 14:43 | 17.68516 | 89.69363 | 40834 ft | 508 kts | 109° |
| 2026-05-04 14:43 | 17.66239 | 89.76387 | 40835 ft | 509 kts | 109° |
| 2026-05-04 14:44 | 17.63960 | 89.83413 | 40836 ft | 509 kts | 109° |
| 2026-05-04 14:44 | 17.61676 | 89.90442 | 40838 ft | 509 kts | 109° |
| 2026-05-04 14:45 | 17.59403 | 89.97428 | 40839 ft | 509 kts | 109° |
| 2026-05-04 14:45 | 17.57116 | 90.04448 | 40838 ft | 508 kts | 109° |
| 2026-05-04 14:46 | 17.54833 | 90.11446 | 40836 ft | 507 kts | 109° |
| 2026-05-04 14:46 | 17.52552 | 90.18429 | 40831 ft | 505 kts | 109° |
| 2026-05-04 14:47 | 17.50273 | 90.25398 | 40830 ft | 506 kts | 109° |
| 2026-05-04 14:47 | 17.47998 | 90.32345 | 40833 ft | 507 kts | 109° |
| 2026-05-04 14:48 | 17.45701 | 90.39347 | 40837 ft | 508 kts | 109° |
| 2026-05-04 14:48 | 17.43400 | 90.46354 | 40839 ft | 508 kts | 109° |
| 2026-05-04 14:49 | 17.41105 | 90.53336 | 40845 ft | 506 kts | 109° |
| 2026-05-04 14:49 | 17.38742 | 90.60269 | 40842 ft | 504 kts | 111° |
| 2026-05-04 14:50 | 17.36318 | 90.67148 | 40844 ft | 504 kts | 110° |
| 2026-05-04 14:50 | 17.33939 | 90.74058 | 40846 ft | 506 kts | 111° |
| 2026-05-04 14:51 | 17.31528 | 90.80939 | 40851 ft | 507 kts | 110° |
| 2026-05-04 14:51 | 17.29116 | 90.87883 | 40853 ft | 507 kts | 110° |
| 2026-05-04 14:52 | 17.26695 | 90.94805 | 40852 ft | 505 kts | 110° |
| 2026-05-04 14:52 | 17.24286 | 91.01706 | 40855 ft | 504 kts | 110° |
| 2026-05-04 14:53 | 17.21880 | 91.08579 | 40853 ft | 503 kts | 110° |
| 2026-05-04 14:53 | 17.19470 | 91.15461 | 40854 ft | 503 kts | 110° |
| 2026-05-04 14:54 | 17.17057 | 91.22337 | 40854 ft | 503 kts | 110° |
| 2026-05-04 14:54 | 17.14660 | 91.29164 | 40853 ft | 503 kts | 110° |
| 2026-05-04 14:55 | 17.12240 | 91.36045 | 40853 ft | 503 kts | 110° |
| 2026-05-04 14:55 | 17.09824 | 91.42907 | 40853 ft | 503 kts | 110° |
| 2026-05-04 14:56 | 17.07421 | 91.49727 | 40852 ft | 503 kts | 110° |
| 2026-05-04 14:56 | 17.04998 | 91.56592 | 40853 ft | 502 kts | 110° |
| 2026-05-04 14:57 | 17.02585 | 91.63422 | 40853 ft | 502 kts | 111° |
| 2026-05-04 14:57 | 17.00161 | 91.70272 | 40852 ft | 502 kts | 111° |
| 2026-05-04 14:58 | 16.97735 | 91.77121 | 40852 ft | 502 kts | 111° |
| 2026-05-04 14:58 | 16.95316 | 91.83943 | 40852 ft | 502 kts | 111° |
| 2026-05-04 14:59 | 16.92885 | 91.90792 | 40853 ft | 503 kts | 111° |
| 2026-05-04 15:00 | 16.89215 | 92.01113 | 40876 ft | 505 kts | 111° |
| 2026-05-04 15:00 | 16.86830 | 92.07979 | 40880 ft | 505 kts | 110° |
| 2026-05-04 15:01 | 16.83220 | 92.18288 | 40876 ft | 502 kts | 110° |
| 2026-05-04 15:01 | 16.80833 | 92.25131 | 40871 ft | 502 kts | 110° |
| 2026-05-04 15:02 | 16.78443 | 92.31938 | 40878 ft | 503 kts | 110° |
| 2026-05-04 15:02 | 16.76026 | 92.38834 | 40880 ft | 504 kts | 110° |
| 2026-05-04 15:03 | 16.73610 | 92.45712 | 40880 ft | 505 kts | 110° |
| 2026-05-04 15:03 | 16.71187 | 92.52602 | 40885 ft | 506 kts | 110° |
| 2026-05-04 15:04 | 16.68781 | 92.59437 | 40884 ft | 503 kts | 110° |
| 2026-05-04 15:04 | 16.66369 | 92.66280 | 40882 ft | 502 kts | 110° |
| 2026-05-04 15:05 | 16.63958 | 92.73112 | 40874 ft | 501 kts | 110° |
| 2026-05-04 15:05 | 16.61546 | 92.79937 | 40879 ft | 502 kts | 110° |
| 2026-05-04 15:06 | 16.59132 | 92.86761 | 40870 ft | 502 kts | 110° |
| 2026-05-04 15:07 | 16.55506 | 92.96999 | 40874 ft | 502 kts | 110° |
| 2026-05-04 15:07 | 16.53085 | 93.03822 | 40874 ft | 502 kts | 110° |
| 2026-05-04 15:08 | 16.50666 | 93.10634 | 40875 ft | 500 kts | 110° |
| 2026-05-04 15:08 | 16.48252 | 93.17420 | 40879 ft | 500 kts | 110° |
| 2026-05-04 15:09 | 16.45832 | 93.24218 | 40880 ft | 501 kts | 110° |
| 2026-05-04 15:09 | 16.43416 | 93.30998 | 40883 ft | 502 kts | 110° |
| 2026-05-04 15:10 | 16.39762 | 93.41234 | 40885 ft | 503 kts | 111° |
| 2026-05-04 15:11 | 16.36100 | 93.51477 | 40888 ft | 503 kts | 111° |
| 2026-05-04 15:11 | 16.33656 | 93.58303 | 40887 ft | 503 kts | 111° |
| 2026-05-04 15:12 | 16.31213 | 93.65117 | 40889 ft | 502 kts | 111° |
| 2026-05-04 15:12 | 16.28786 | 93.71881 | 40886 ft | 499 kts | 111° |
| 2026-05-04 15:13 | 16.26350 | 93.78660 | 40877 ft | 499 kts | 111° |
| 2026-05-04 15:13 | 16.23915 | 93.85428 | 40886 ft | 500 kts | 111° |
| 2026-05-04 15:14 | 16.21472 | 93.92213 | 40882 ft | 501 kts | 111° |
| 2026-05-04 15:14 | 16.19024 | 93.99006 | 40885 ft | 501 kts | 111° |
| 2026-05-04 15:15 | 16.16585 | 94.05763 | 40890 ft | 502 kts | 111° |
| 2026-05-04 15:15 | 16.14124 | 94.12574 | 40892 ft | 503 kts | 111° |
| 2026-05-04 15:16 | 16.10429 | 94.22777 | 40887 ft | 501 kts | 111° |
| 2026-05-04 15:17 | 16.06581 | 94.32865 | 40879 ft | 499 kts | 111° |
| 2026-05-04 15:17 | 16.02788 | 94.42926 | 40882 ft | 498 kts | 112° |
| 2026-05-04 15:18 | 16.00263 | 94.49590 | 40875 ft | 499 kts | 111° |
| 2026-05-04 15:19 | 15.96434 | 94.59679 | 40881 ft | 501 kts | 112° |
| 2026-05-04 15:19 | 15.92593 | 94.69793 | 40889 ft | 502 kts | 112° |
| 2026-05-04 15:20 | 15.90458 | 94.75401 | 40889 ft | 501 kts | 112° |
| 2026-05-04 15:20 | 15.87891 | 94.82145 | 40881 ft | 500 kts | 112° |
| 2026-05-04 15:21 | 15.85329 | 94.88863 | 40882 ft | 500 kts | 112° |
| 2026-05-04 15:22 | 15.81504 | 94.98884 | 40880 ft | 499 kts | 112° |
| 2026-05-04 15:22 | 15.77665 | 95.08923 | 40886 ft | 498 kts | 112° |
| 2026-05-04 15:23 | 15.75101 | 95.15620 | 40883 ft | 499 kts | 112° |
| 2026-05-04 15:23 | 15.72528 | 95.22333 | 40886 ft | 501 kts | 112° |
| 2026-05-04 15:24 | 15.67369 | 95.35774 | 40891 ft | 502 kts | 112° |
| 2026-05-04 15:25 | 15.64785 | 95.42494 | 40888 ft | 501 kts | 112° |
| 2026-05-04 15:26 | 15.60915 | 95.52547 | 40886 ft | 499 kts | 112° |
| 2026-05-04 15:26 | 15.57044 | 95.62588 | 40880 ft | 499 kts | 112° |
| 2026-05-04 15:27 | 15.53163 | 95.72637 | 40891 ft | 502 kts | 112° |
| 2026-05-04 15:28 | 15.49263 | 95.82721 | 40887 ft | 501 kts | 112° |
| 2026-05-04 15:29 | 15.45391 | 95.92717 | 40886 ft | 499 kts | 112° |
| 2026-05-04 15:30 | 15.36308 | 96.16105 | 40877 ft | 500 kts | 112° |
| 2026-05-04 15:31 | 15.32413 | 96.26107 | 40882 ft | 502 kts | 112° |
| 2026-05-04 15:32 | 15.25861 | 96.42903 | 40881 ft | 501 kts | 112° |
| 2026-05-04 15:34 | 15.19354 | 96.59541 | 40861 ft | 499 kts | 112° |
| 2026-05-04 15:34 | 15.15432 | 96.69546 | 40864 ft | 500 kts | 112° |
| 2026-05-04 15:35 | 15.11510 | 96.79541 | 40866 ft | 502 kts | 112° |
| 2026-05-04 15:36 | 15.07561 | 96.89588 | 40869 ft | 501 kts | 113° |
| 2026-05-04 15:36 | 15.04931 | 96.96271 | 40862 ft | 500 kts | 113° |
| 2026-05-04 15:37 | 15.02306 | 97.02934 | 40859 ft | 499 kts | 113° |
| 2026-05-04 15:37 | 14.99684 | 97.09583 | 40856 ft | 498 kts | 113° |
| 2026-05-04 15:38 | 14.97080 | 97.16179 | 40854 ft | 498 kts | 113° |
| 2026-05-04 15:38 | 14.94452 | 97.22830 | 40856 ft | 500 kts | 113° |
| 2026-05-04 15:39 | 14.91819 | 97.29488 | 40859 ft | 501 kts | 113° |
| 2026-05-04 15:40 | 14.87865 | 97.39474 | 40876 ft | 502 kts | 113° |
| 2026-05-04 15:40 | 14.85213 | 97.46163 | 40876 ft | 502 kts | 113° |
| 2026-05-04 15:41 | 14.82564 | 97.52838 | 40862 ft | 500 kts | 113° |
| 2026-05-04 15:41 | 14.79925 | 97.59481 | 40858 ft | 498 kts | 113° |
| 2026-05-04 15:42 | 14.77307 | 97.66066 | 40855 ft | 498 kts | 113° |
| 2026-05-04 15:42 | 14.74666 | 97.72702 | 40856 ft | 499 kts | 113° |
| 2026-05-04 15:43 | 14.72018 | 97.79349 | 40858 ft | 500 kts | 113° |
| 2026-05-04 15:43 | 14.69365 | 97.86002 | 40860 ft | 501 kts | 113° |
| 2026-05-04 15:44 | 14.66700 | 97.92678 | 40874 ft | 502 kts | 113° |
| 2026-05-04 15:44 | 14.64049 | 97.99298 | 40867 ft | 501 kts | 113° |
| 2026-05-04 15:45 | 14.61388 | 98.05943 | 40862 ft | 500 kts | 113° |
| 2026-05-04 15:45 | 14.58730 | 98.12571 | 40867 ft | 499 kts | 113° |
| 2026-05-04 15:46 | 14.56069 | 98.19200 | 40871 ft | 499 kts | 113° |
| 2026-05-04 15:46 | 14.53410 | 98.25821 | 40863 ft | 500 kts | 113° |
| 2026-05-04 15:47 | 14.50741 | 98.32458 | 40870 ft | 500 kts | 113° |
| 2026-05-04 15:47 | 14.48069 | 98.39097 | 40872 ft | 501 kts | 113° |
| 2026-05-04 15:48 | 14.45408 | 98.45703 | 40881 ft | 502 kts | 113° |
| 2026-05-04 15:48 | 14.41433 | 98.55669 | 40883 ft | 500 kts | 108° |
| 2026-05-04 15:49 | 14.39654 | 98.62606 | 40893 ft | 501 kts | 105° |
| 2026-05-04 15:49 | 14.37913 | 98.69574 | 40881 ft | 501 kts | 105° |
| 2026-05-04 15:50 | 14.36159 | 98.76537 | 40883 ft | 501 kts | 105° |
| 2026-05-04 15:50 | 14.34423 | 98.83453 | 40879 ft | 500 kts | 105° |
| 2026-05-04 15:51 | 14.32673 | 98.90395 | 40876 ft | 500 kts | 105° |
| 2026-05-04 15:51 | 14.30921 | 98.97350 | 40880 ft | 500 kts | 105° |
| 2026-05-04 15:52 | 14.29167 | 99.04291 | 40889 ft | 500 kts | 105° |
| 2026-05-04 15:52 | 14.27414 | 99.11226 | 40886 ft | 501 kts | 105° |
| 2026-05-04 15:53 | 14.25804 | 99.17590 | 40530 ft | 492 kts | 105° |
| 2026-05-04 15:53 | 14.24949 | 99.20963 | 39849 ft | 493 kts | 105° |
| 2026-05-04 15:53 | 14.24079 | 99.24394 | 39161 ft | 494 kts | 105° |
| 2026-05-04 15:54 | 14.23211 | 99.27813 | 38617 ft | 490 kts | 105° |
| 2026-05-04 15:54 | 14.22351 | 99.31204 | 37700 ft | 487 kts | 105° |
| 2026-05-04 15:54 | 14.21494 | 99.34578 | 37016 ft | 494 kts | 105° |
| 2026-05-04 15:54 | 14.20611 | 99.38046 | 36230 ft | 502 kts | 105° |
| 2026-05-04 15:55 | 14.19618 | 99.41475 | 35944 ft | 492 kts | 114° |
| 2026-05-04 15:55 | 14.18037 | 99.44576 | 36033 ft | 490 kts | 127° |
| 2026-05-04 15:55 | 14.15836 | 99.47275 | 36129 ft | 493 kts | 139° |
| 2026-05-04 15:55 | 14.13156 | 99.49419 | 36230 ft | 495 kts | 151° |
| 2026-05-04 15:56 | 14.10036 | 99.51031 | 36328 ft | 497 kts | 162° |
| 2026-05-04 15:56 | 14.06751 | 99.52017 | 36275 ft | 500 kts | 172° |
| 2026-05-04 15:56 | 14.03253 | 99.52365 | 36068 ft | 497 kts | 183° |
| 2026-05-04 15:56 | 13.99882 | 99.52042 | 35799 ft | 490 kts | 194° |
| 2026-05-04 15:57 | 13.96628 | 99.51088 | 35461 ft | 485 kts | 204° |
| 2026-05-04 15:57 | 13.93620 | 99.49539 | 35106 ft | 483 kts | 214° |
| 2026-05-04 15:57 | 13.90954 | 99.47458 | 34705 ft | 482 kts | 225° |
| 2026-05-04 15:57 | 13.88707 | 99.44907 | 34280 ft | 480 kts | 235° |
| 2026-05-04 15:58 | 13.86957 | 99.41979 | 33863 ft | 481 kts | 245° |
| 2026-05-04 15:58 | 13.85759 | 99.38764 | 33439 ft | 481 kts | 256° |
| 2026-05-04 15:58 | 13.85394 | 99.35361 | 32783 ft | 478 kts | 272° |
| 2026-05-04 15:58 | 13.85851 | 99.31935 | 31136 ft | 487 kts | 282° |
| 2026-05-04 15:59 | 13.86713 | 99.28600 | 28577 ft | 486 kts | 287° |
| 2026-05-04 15:59 | 13.87851 | 99.25342 | 26909 ft | 475 kts | 294° |
| 2026-05-04 15:59 | 13.89481 | 99.22426 | 24990 ft | 467 kts | 306° |
| 2026-05-04 15:59 | 13.91586 | 99.19924 | 23127 ft | 458 kts | 315° |
| 2026-05-04 16:00 | 13.94011 | 99.17846 | 21471 ft | 449 kts | 325° |
| 2026-05-04 16:00 | 13.96604 | 99.16244 | 20546 ft | 421 kts | 333° |
| 2026-05-04 16:00 | 13.99242 | 99.15111 | 19187 ft | 405 kts | 342° |
| 2026-05-04 16:00 | 14.01918 | 99.14417 | 17719 ft | 397 kts | 350° |
| 2026-05-04 16:01 | 14.04613 | 99.14120 | 16300 ft | 386 kts | 359° |
| 2026-05-04 16:01 | 14.07250 | 99.14507 | 14857 ft | 378 kts | 19° |
| 2026-05-04 16:01 | 14.09539 | 99.15726 | 14058 ft | 374 kts | 36° |
| 2026-05-04 16:01 | 14.11480 | 99.17640 | 13920 ft | 390 kts | 52° |
| 2026-05-04 16:02 | 14.12818 | 99.20087 | 13917 ft | 397 kts | 69° |
| 2026-05-04 16:02 | 14.13724 | 99.22784 | 13911 ft | 400 kts | 71° |
| 2026-05-04 16:02 | 14.15445 | 99.28246 | 13907 ft | 401 kts | 71° |
| 2026-05-04 16:03 | 14.16333 | 99.30968 | 13907 ft | 400 kts | 71° |
| 2026-05-04 16:03 | 14.17214 | 99.33654 | 13909 ft | 400 kts | 71° |
| 2026-05-04 16:03 | 14.18094 | 99.36384 | 13913 ft | 400 kts | 71° |
| 2026-05-04 16:03 | 14.18971 | 99.39110 | 13916 ft | 401 kts | 71° |
| 2026-05-04 16:04 | 14.19852 | 99.41834 | 13914 ft | 400 kts | 71° |
| 2026-05-04 16:04 | 14.21615 | 99.47287 | 13915 ft | 401 kts | 71° |
| 2026-05-04 16:04 | 14.22497 | 99.50021 | 13916 ft | 402 kts | 71° |
| 2026-05-04 16:05 | 14.23376 | 99.52748 | 13917 ft | 401 kts | 71° |
| 2026-05-04 16:05 | 14.24244 | 99.55440 | 13918 ft | 401 kts | 71° |
| 2026-05-04 16:05 | 14.26007 | 99.60908 | 13917 ft | 402 kts | 71° |
| 2026-05-04 16:06 | 14.26888 | 99.63645 | 13917 ft | 400 kts | 71° |
| 2026-05-04 16:06 | 14.29021 | 99.70273 | 13900 ft | 333 kts | 71° |
| 2026-05-04 16:07 | 14.29967 | 99.73217 | 13903 ft | 318 kts | 71° |
| 2026-05-04 16:07 | 14.32047 | 99.79689 | 13907 ft | 319 kts | 71° |
| 2026-05-04 16:08 | 14.32744 | 99.81862 | 13909 ft | 319 kts | 71° |
| 2026-05-04 16:08 | 14.34842 | 99.88399 | 13909 ft | 320 kts | 71° |
| 2026-05-04 16:09 | 14.36241 | 99.92762 | 13908 ft | 320 kts | 71° |
| 2026-05-04 16:09 | 14.37403 | 99.96390 | 13908 ft | 319 kts | 71° |
| 2026-05-04 16:10 | 14.39025 | 100.01458 | 13908 ft | 319 kts | 71° |
| 2026-05-04 16:11 | 14.40734 | 100.07306 | 13909 ft | 319 kts | 87° |
| 2026-05-04 16:11 | 14.40445 | 100.09569 | 13929 ft | 321 kts | 110° |
| 2026-05-04 16:12 | 14.35320 | 100.13333 | 13948 ft | 323 kts | 181° |
| 2026-05-04 16:12 | 14.30179 | 100.09536 | 13949 ft | 322 kts | 250° |
| 2026-05-04 16:13 | 14.28757 | 100.05145 | 13932 ft | 323 kts | 252° |
| 2026-05-04 16:13 | 14.27367 | 100.00742 | 13928 ft | 322 kts | 253° |
| 2026-05-04 16:14 | 14.27747 | 99.96305 | 13935 ft | 321 kts | 300° |
| 2026-05-04 16:14 | 14.31163 | 99.93555 | 13946 ft | 319 kts | 347° |
| 2026-05-04 16:15 | 14.36999 | 99.95841 | 13948 ft | 319 kts | 57° |
| 2026-05-04 16:16 | 14.38616 | 100.00097 | 13928 ft | 320 kts | 72° |
| 2026-05-04 16:16 | 14.40640 | 100.06651 | 13927 ft | 318 kts | 78° |
| 2026-05-04 16:17 | 14.39711 | 100.11015 | 13940 ft | 322 kts | 127° |
| 2026-05-04 16:18 | 14.33728 | 100.13088 | 13952 ft | 323 kts | 198° |
| 2026-05-04 16:18 | 14.31773 | 100.11971 | 13952 ft | 323 kts | 222° |
| 2026-05-04 16:19 | 14.28946 | 100.05765 | 13936 ft | 323 kts | 252° |
| 2026-05-04 16:19 | 14.27573 | 100.01390 | 13925 ft | 323 kts | 252° |
| 2026-05-04 16:20 | 14.28711 | 99.94984 | 13937 ft | 321 kts | 317° |
| 2026-05-04 16:20 | 14.32748 | 99.93384 | 13949 ft | 319 kts | 4° |
| 2026-05-04 16:21 | 14.37708 | 99.97353 | 13942 ft | 320 kts | 70° |
| 2026-05-04 16:22 | 14.39116 | 100.01720 | 13928 ft | 320 kts | 72° |
| 2026-05-04 16:22 | 14.40703 | 100.08340 | 13930 ft | 320 kts | 97° |
| 2026-05-04 16:23 | 14.36542 | 100.13189 | 13947 ft | 324 kts | 168° |
| 2026-05-04 16:24 | 14.29616 | 100.17347 | 13956 ft | 321 kts | 95° |
| 2026-05-04 16:25 | 14.29884 | 100.21903 | 13943 ft | 320 kts | 99° |
| 2026-05-04 16:26 | 14.28514 | 100.30953 | 13936 ft | 321 kts | 93° |
| 2026-05-04 16:26 | 14.27868 | 100.37825 | 13940 ft | 321 kts | 95° |
| 2026-05-04 16:27 | 14.27455 | 100.42404 | 13987 ft | 321 kts | 95° |
| 2026-05-04 16:28 | 14.26810 | 100.49281 | 13997 ft | 320 kts | 95° |
| 2026-05-04 16:28 | 14.26170 | 100.56135 | 13998 ft | 320 kts | 95° |
| 2026-05-04 16:29 | 14.23562 | 100.64554 | 13852 ft | 322 kts | 144° |
| 2026-05-04 16:30 | 14.17310 | 100.65079 | 12495 ft | 312 kts | 194° |
| 2026-05-04 16:31 | 14.13190 | 100.63960 | 12000 ft | 301 kts | 194° |
| 2026-05-04 16:31 | 14.07051 | 100.62354 | 11523 ft | 300 kts | 194° |
| 2026-05-04 16:32 | 14.01263 | 100.61399 | 10921 ft | 274 kts | 163° |
| 2026-05-04 16:33 | 13.98427 | 100.63997 | 9874 ft | 288 kts | 109° |
| 2026-05-04 16:33 | 13.97426 | 100.67939 | 8938 ft | 276 kts | 96° |
| 2026-05-04 16:34 | 13.98438 | 100.71491 | 8387 ft | 255 kts | 51° |
| 2026-05-04 16:34 | 13.99732 | 100.72636 | 8166 ft | 242 kts | 32° |
| 2026-05-04 16:35 | 14.04223 | 100.74010 | 7595 ft | 208 kts | 17° |
| 2026-05-04 16:35 | 14.08438 | 100.75120 | 7000 ft | 216 kts | 16° |
| 2026-05-04 16:36 | 14.09954 | 100.75147 | 6966 ft | 228 kts | 343° |
| 2026-05-04 16:36 | 14.12166 | 100.72795 | 7015 ft | 234 kts | 306° |
| 2026-05-04 16:37 | 14.13649 | 100.69809 | 7000 ft | 241 kts | 281° |
| 2026-05-04 16:37 | 14.13717 | 100.68086 | 7000 ft | 241 kts | 263° |
| 2026-05-04 16:37 | 14.12732 | 100.64783 | 6998 ft | 244 kts | 248° |
| 2026-05-04 16:38 | 14.11168 | 100.61738 | 6991 ft | 243 kts | 227° |
| 2026-05-04 16:39 | 14.07499 | 100.58115 | 7002 ft | 244 kts | 221° |
| 2026-05-04 16:39 | 14.04827 | 100.55991 | 6990 ft | 241 kts | 206° |
| 2026-05-04 16:40 | 14.01715 | 100.54748 | 6991 ft | 240 kts | 197° |
| 2026-05-04 16:40 | 13.98566 | 100.53608 | 6992 ft | 240 kts | 197° |
| 2026-05-04 16:41 | 13.95433 | 100.52464 | 6994 ft | 240 kts | 197° |
| 2026-05-04 16:41 | 13.90706 | 100.50733 | 7011 ft | 240 kts | 197° |
| 2026-05-04 16:42 | 13.85982 | 100.49002 | 7011 ft | 240 kts | 197° |
| 2026-05-04 16:43 | 13.82829 | 100.47843 | 7011 ft | 241 kts | 197° |
| 2026-05-04 16:43 | 13.79673 | 100.46680 | 7017 ft | 240 kts | 197° |
| 2026-05-04 16:43 | 13.78113 | 100.46108 | 7011 ft | 241 kts | 197° |
| 2026-05-04 16:44 | 13.71706 | 100.44149 | 7018 ft | 241 kts | 193° |
| 2026-05-04 16:45 | 13.68515 | 100.43229 | 6560 ft | 238 kts | 193° |
| 2026-05-04 16:46 | 13.63842 | 100.41873 | 6016 ft | 234 kts | 193° |
| 2026-05-04 16:46 | 13.60702 | 100.40967 | 6022 ft | 235 kts | 193° |
| 2026-05-04 16:47 | 13.57540 | 100.40105 | 6010 ft | 234 kts | 187° |
| 2026-05-04 16:47 | 13.55082 | 100.41712 | 6000 ft | 225 kts | 109° |
| 2026-05-04 16:48 | 13.55600 | 100.46346 | 6022 ft | 227 kts | 68° |
| 2026-05-04 16:48 | 13.56251 | 100.47830 | 6019 ft | 229 kts | 64° |
| 2026-05-04 16:49 | 13.58179 | 100.50431 | 6008 ft | 229 kts | 45° |
| 2026-05-04 16:49 | 13.60696 | 100.52425 | 6026 ft | 230 kts | 38° |
| 2026-05-04 16:50 | 13.63281 | 100.54382 | 6027 ft | 231 kts | 38° |
| 2026-05-04 16:50 | 13.65870 | 100.56338 | 6031 ft | 230 kts | 38° |
| 2026-05-04 16:51 | 13.68460 | 100.58289 | 6030 ft | 230 kts | 38° |
| 2026-05-04 16:51 | 13.69755 | 100.59260 | 6030 ft | 230 kts | 37° |
| 2026-05-04 16:51 | 13.72557 | 100.60850 | 6025 ft | 232 kts | 26° |
| 2026-05-04 16:52 | 13.75487 | 100.62210 | 6026 ft | 231 kts | 25° |
| 2026-05-04 16:52 | 13.76967 | 100.62893 | 6030 ft | 233 kts | 26° |
| 2026-05-04 16:53 | 13.79928 | 100.64260 | 6030 ft | 233 kts | 26° |
| 2026-05-04 16:53 | 13.84343 | 100.66314 | 6023 ft | 231 kts | 29° |
| 2026-05-04 16:54 | 13.85695 | 100.67125 | 5586 ft | 230 kts | 34° |
| 2026-05-04 16:55 | 13.91126 | 100.70562 | 3829 ft | 228 kts | 33° |
| 2026-05-04 16:55 | 13.93806 | 100.72237 | 3038 ft | 224 kts | 33° |
| 2026-05-04 16:56 | 13.96438 | 100.73939 | 3023 ft | 224 kts | 39° |
| 2026-05-04 16:56 | 13.97680 | 100.78204 | 3014 ft | 208 kts | 94° |
| 2026-05-04 16:57 | 13.97434 | 100.79690 | 3006 ft | 210 kts | 107° |
| 2026-05-04 16:57 | 13.96151 | 100.82304 | 3004 ft | 207 kts | 139° |
| 2026-05-04 16:58 | 13.92503 | 100.82269 | 3029 ft | 210 kts | 192° |
| 2026-05-04 16:58 | 13.90625 | 100.81780 | 3031 ft | 210 kts | 193° |
| 2026-05-04 16:59 | 13.88252 | 100.81155 | 3028 ft | 209 kts | 193° |
| 2026-05-04 17:00 | 13.82598 | 100.79656 | 2707 ft | 210 kts | 193° |
| 2026-05-04 17:00 | 13.78622 | 100.78592 | 1918 ft | 189 kts | 190° |
| 2026-05-04 17:01 | 13.76207 | 100.77964 | 1442 ft | 175 kts | 188° |
| 2026-05-04 17:01 | 13.74036 | 100.77385 | 1011 ft | 152 kts | 185° |
| 2026-05-04 17:02 | 13.72081 | 100.76872 | 627 ft | 146 kts | 186° |
| 2026-05-04 17:02 | 13.70140 | 100.76339 | 239 ft | 144 kts | 186° |
| 2026-05-04 17:03 | 13.69166 | 100.76092 | 66 ft | 142 kts | 184° |
| 2026-05-04 17:03 | 13.68864 | 100.76014 | 26 ft | 135 kts | 187° |
| 2026-05-04 17:03 | 13.67936 | 100.75778 | 16 ft | 77 kts | 194° |
| 2026-05-04 17:04 | 13.67202 | 100.75554 | 20 ft | 23 kts | 220° |
| 2026-05-04 17:04 | 13.67107 | 100.75396 | 20 ft | 7 kts | 309° |
| 2026-05-04 17:05 | 13.67179 | 100.75388 | 19 ft | 5 kts | 17° |
| 2026-05-04 17:05 | 13.67301 | 100.75425 | 18 ft | 13 kts | 16° |
| 2026-05-04 17:06 | 13.67504 | 100.75476 | 18 ft | 18 kts | 14° |
| 2026-05-04 17:06 | 13.67631 | 100.75508 | 18 ft | 20 kts | 14° |
| 2026-05-04 17:07 | 13.67932 | 100.75588 | 18 ft | 24 kts | 15° |
| 2026-05-04 17:07 | 13.68044 | 100.75616 | 18 ft | 26 kts | 14° |
| 2026-05-04 17:07 | 13.68273 | 100.75678 | 19 ft | 23 kts | 13° |
| 2026-05-04 17:07 | 13.68404 | 100.75706 | 19 ft | 14 kts | 360° |
| 2026-05-04 17:08 | 13.68453 | 100.75654 | 19 ft | 10 kts | 273° |
| 2026-05-04 17:08 | 13.68488 | 100.75525 | 20 ft | 13 kts | 285° |
| 2026-05-04 17:08 | 13.68513 | 100.75424 | 18 ft | 16 kts | 283° |
| 2026-05-04 17:09 | 13.68545 | 100.75300 | 19 ft | 19 kts | 284° |
| 2026-05-04 17:09 | 13.68581 | 100.75154 | 19 ft | 23 kts | 284° |
| 2026-05-04 17:09 | 13.68623 | 100.74989 | 19 ft | 25 kts | 284° |
| 2026-05-04 17:10 | 13.68699 | 100.74685 | 19 ft | 18 kts | 284° |
| 2026-05-04 17:10 | 13.68807 | 100.74406 | 19 ft | 7 kts | 352° |
| 2026-05-04 17:11 | 13.68851 | 100.74409 | 19 ft | 7 kts | 7° |
| 2026-05-04 17:11 | 13.68904 | 100.74423 | 19 ft | 9 kts | 15° |
| 2026-05-04 17:11 | 13.69046 | 100.74463 | 19 ft | 7 kts | 14° |
| 2026-05-04 17:12 | 13.69061 | 100.74472 | 19 ft | 0 kts | 49° |
| 2026-05-04 17:12 | 13.69073 | 100.74491 | 19 ft | 1 kts | 63° |
| 2026-05-04 17:13 | 13.69066 | 100.74537 | 19 ft | 6 kts | 101° |
| 2026-05-04 17:14 | 13.69059 | 100.74566 | 19 ft | 0 kts | 104° |